Terminal Aerodrome Forecast
Issued by NWS

Home | Current Version | Previous Version | Text Only | Print | Product List | Glossary On
Versions: 1 2 3 4 5 6 7 8 9 10 11 12 13 14 15 16
000
FTUS44 KCRP 300529
TAFLRD
TAF
KLRD 300529Z 3006/0106 08012KT P6SM SCT030 BKN250
     FM300800 VRB03KT P6SM BKN015 OVC250
      TEMPO 3009/3013 5SM BR OVC012
     FM301500 36008KT P6SM SCT025 BKN250
     FM301800 02008KT P6SM SCT050 BKN250
     FM010100 09010KT P6SM SCT250=

USA.gov is the U.S. government's official web portal to all federal, state and local government web resources and services.